createdAt,value
2019-01-13T00:00:11.644Z,6.94
2019-01-13T00:01:08.428Z,6.73
2019-01-13T00:02:07.126Z,6.80
2019-01-13T00:03:07.174Z,6.80
2019-01-13T00:04:07.718Z,6.77
2019-01-13T00:05:06.715Z,6.86
2019-01-13T00:06:06.960Z,6.81
2019-01-13T00:07:07.334Z,6.76
2019-01-13T00:08:07.399Z,6.87
2019-01-13T00:09:06.708Z,6.89
2019-01-13T00:10:07.315Z,6.94
2019-01-13T00:11:06.734Z,6.87
2019-01-13T00:12:07.349Z,6.94
2019-01-13T00:13:07.476Z,6.98
2019-01-13T00:14:06.628Z,6.87
2019-01-13T00:15:07.047Z,6.87
2019-01-13T00:16:07.421Z,6.94
2019-01-13T00:17:06.631Z,6.90
2019-01-13T00:18:06.745Z,6.98
2019-01-13T00:19:06.572Z,6.97
2019-01-13T00:20:07.331Z,6.90
2019-01-13T00:21:07.327Z,6.90
2019-01-13T00:23:08.822Z,6.95
2019-01-13T00:24:06.553Z,6.89
2019-01-13T00:25:06.553Z,6.90
2019-01-13T00:26:06.576Z,6.99
2019-01-13T00:27:06.462Z,6.97
2019-01-13T00:28:07.340Z,6.87
2019-01-13T00:29:08.127Z,7.01
2019-01-13T00:30:06.491Z,6.89
2019-01-13T00:31:07.921Z,6.90
2019-01-13T00:32:06.501Z,6.91
2019-01-13T00:34:07.679Z,6.98
2019-01-13T00:35:06.389Z,6.99
2019-01-13T00:36:06.778Z,6.97
2019-01-13T00:37:07.345Z,6.98
2019-01-13T00:38:06.391Z,7.01
2019-01-13T00:39:11.208Z,7.09
2019-01-13T00:40:08.342Z,6.97
2019-01-13T00:41:06.321Z,6.95
2019-01-13T00:42:06.412Z,7.02
2019-01-13T00:43:06.824Z,6.98
2019-01-13T00:44:06.853Z,6.97
2019-01-13T00:45:06.718Z,7.02
2019-01-13T00:46:06.900Z,7.02
2019-01-13T00:47:06.612Z,6.98
2019-01-13T00:48:06.247Z,7.05
2019-01-13T00:49:06.258Z,7.01
2019-01-13T00:50:07.039Z,7.07
2019-01-13T00:51:06.441Z,7.02
2019-01-13T00:52:06.353Z,7.01
2019-01-13T00:53:07.053Z,6.98
2019-01-13T00:54:06.475Z,7.07
2019-01-13T00:55:08.395Z,7.01
2019-01-13T00:56:06.161Z,7.08
2019-01-13T00:57:06.210Z,7.01
2019-01-13T00:58:06.662Z,6.98
2019-01-13T00:59:06.693Z,7.15
2019-01-13T01:01:07.405Z,6.98
2019-01-13T01:02:06.222Z,6.97
2019-01-13T01:03:06.152Z,7.02
2019-01-13T01:04:06.155Z,6.99
2019-01-13T01:05:07.008Z,6.99
2019-01-13T01:06:06.134Z,7.05
2019-01-13T01:07:06.842Z,7.04
2019-01-13T01:08:06.111Z,6.95
2019-01-13T01:09:06.045Z,7.05
2019-01-13T01:10:06.832Z,7.09
2019-01-13T01:11:07.105Z,7.01
2019-01-13T01:12:06.007Z,7.01
2019-01-13T01:13:06.333Z,7.07
2019-01-13T01:14:06.233Z,7.07
2019-01-13T01:15:06.070Z,7.01
2019-01-13T01:16:06.318Z,7.02
2019-01-13T01:17:05.955Z,6.97
2019-01-13T01:18:06.007Z,7.01
2019-01-13T01:19:06.262Z,6.99
2019-01-13T01:20:05.931Z,6.94
2019-01-13T01:21:06.144Z,7.02
2019-01-13T01:22:05.965Z,6.98
2019-01-13T01:23:05.871Z,7.09
2019-01-13T01:24:06.018Z,6.97
2019-01-13T01:25:05.858Z,7.01
2019-01-13T01:26:06.834Z,6.98
2019-01-13T01:27:05.894Z,6.97
2019-01-13T01:28:05.853Z,7.01
2019-01-13T01:29:06.337Z,7.01
2019-01-13T01:30:06.143Z,7.04
2019-01-13T01:31:05.794Z,6.98
2019-01-13T01:32:06.003Z,6.98
2019-01-13T01:33:06.211Z,7.02
2019-01-13T01:34:06.532Z,7.08
2019-01-13T01:35:05.777Z,6.98
2019-01-13T01:36:05.813Z,6.94
2019-01-13T01:37:05.863Z,6.98
2019-01-13T01:38:05.923Z,6.97
2019-01-13T01:39:05.775Z,6.99
2019-01-13T01:40:06.337Z,7.05
2019-01-13T01:41:05.771Z,6.99
2019-01-13T01:42:05.680Z,7.05
2019-01-13T01:43:06.021Z,7.04
2019-01-13T01:44:05.877Z,7.01
2019-01-13T01:45:05.644Z,7.09
2019-01-13T01:46:05.688Z,7.08
2019-01-13T01:47:05.608Z,7.12
2019-01-13T01:48:06.011Z,7.09
2019-01-13T01:49:05.734Z,7.09
2019-01-13T01:50:05.628Z,7.05
2019-01-13T01:51:05.633Z,6.99
2019-01-13T01:52:05.562Z,7.01
2019-01-13T01:54:07.163Z,6.98
2019-01-13T01:55:05.722Z,6.99
2019-01-13T01:56:06.551Z,6.99
2019-01-13T01:57:06.351Z,7.02
2019-01-13T01:58:05.561Z,7.04
2019-01-13T01:59:06.847Z,6.98
2019-01-13T02:00:06.365Z,6.98
2019-01-13T02:01:05.464Z,6.98
2019-01-13T02:02:06.624Z,7.08
2019-01-13T02:03:06.835Z,7.02
2019-01-13T02:04:05.624Z,7.01
2019-01-13T02:05:05.804Z,7.04
2019-01-13T02:06:05.706Z,7.02
2019-01-13T02:07:05.743Z,6.97
2019-01-13T02:08:05.464Z,7.09
2019-01-13T02:09:05.784Z,6.99
2019-01-13T02:10:05.757Z,6.99
2019-01-13T02:11:05.389Z,6.98
2019-01-13T02:12:05.383Z,6.97
2019-01-13T02:13:05.757Z,6.97
2019-01-13T02:14:05.846Z,6.94
2019-01-13T02:15:05.660Z,7.01
2019-01-13T02:16:05.387Z,6.98
2019-01-13T02:17:05.306Z,6.98
2019-01-13T02:18:05.932Z,6.98
2019-01-13T02:19:05.849Z,6.95
2019-01-13T02:20:05.357Z,7.01
2019-01-13T02:21:05.411Z,7.01
2019-01-13T02:22:05.296Z,6.90
2019-01-13T02:23:05.295Z,6.90
2019-01-13T02:24:05.288Z,6.91
2019-01-13T02:25:05.228Z,6.90
2019-01-13T02:26:05.857Z,6.89
2019-01-13T02:27:05.857Z,6.94
2019-01-13T02:28:05.388Z,6.87
2019-01-13T02:29:05.619Z,6.91
2019-01-13T02:30:05.240Z,6.94
2019-01-13T02:31:05.454Z,6.97
2019-01-13T02:32:05.190Z,6.91
2019-01-13T02:33:05.150Z,6.90
2019-01-13T02:34:05.189Z,6.80
2019-01-13T02:35:06.057Z,6.79
2019-01-13T02:36:05.989Z,6.80
2019-01-13T02:37:05.083Z,6.79
2019-01-13T02:38:05.981Z,6.86
2019-01-13T02:39:05.984Z,6.86
2019-01-13T02:40:05.166Z,6.80
2019-01-13T02:42:06.850Z,6.81
2019-01-13T02:43:05.169Z,6.90
2019-01-13T02:44:05.855Z,6.79
2019-01-13T02:45:06.400Z,6.81
2019-01-13T02:46:06.024Z,6.86
2019-01-13T02:47:05.329Z,6.80
2019-01-13T02:48:04.974Z,6.86
2019-01-13T02:49:06.126Z,6.81
2019-01-13T02:50:05.858Z,6.80
2019-01-13T02:51:06.031Z,6.79
2019-01-13T02:52:05.223Z,6.80
2019-01-13T02:53:05.871Z,6.90
2019-01-13T02:54:07.397Z,6.80
2019-01-13T02:55:05.509Z,6.76
2019-01-13T02:56:05.035Z,6.81
2019-01-13T02:57:05.163Z,6.80
2019-01-13T02:58:06.397Z,6.84
2019-01-13T02:59:04.841Z,6.84
2019-01-13T03:00:05.023Z,6.80
2019-01-13T03:01:05.487Z,6.81
2019-01-13T03:02:04.839Z,6.81
2019-01-13T03:03:05.029Z,6.83
2019-01-13T03:04:05.427Z,6.84
2019-01-13T03:05:04.793Z,6.76
2019-01-13T03:06:05.137Z,6.80
2019-01-13T03:07:05.137Z,6.76
2019-01-13T03:08:05.897Z,6.79
2019-01-13T03:09:05.799Z,6.86
2019-01-13T03:10:04.861Z,6.73
2019-01-13T03:11:05.237Z,6.81
2019-01-13T03:12:06.541Z,6.86
2019-01-13T03:13:05.182Z,6.83
2019-01-13T03:14:05.388Z,6.83
2019-01-13T03:15:05.447Z,6.81
2019-01-13T03:16:04.753Z,6.80
2019-01-13T03:18:05.705Z,6.71
2019-01-13T03:19:05.621Z,6.84
2019-01-13T03:20:05.758Z,6.84
2019-01-13T03:21:04.619Z,6.83
2019-01-13T03:22:05.820Z,6.84
2019-01-13T03:23:06.005Z,6.81
2019-01-13T03:24:04.654Z,6.84
2019-01-13T03:25:04.818Z,6.80
2019-01-13T03:26:04.658Z,6.81
2019-01-13T03:28:15.882Z,6.91
2019-01-13T03:29:15.776Z,6.81
2019-01-13T03:30:15.832Z,6.86
2019-01-13T03:31:15.752Z,6.87
2019-01-13T03:32:15.667Z,6.86
2019-01-13T03:33:15.662Z,6.86
2019-01-13T03:34:15.658Z,6.80
2019-01-13T03:35:15.635Z,6.80
2019-01-13T03:36:15.644Z,6.80
2019-01-13T03:37:15.635Z,6.79
2019-01-13T03:38:15.613Z,6.84
2019-01-13T03:39:15.601Z,6.83
2019-01-13T03:40:15.588Z,6.90
2019-01-13T03:41:15.602Z,6.95
2019-01-13T03:42:15.596Z,6.97
2019-01-13T03:43:15.551Z,6.89
2019-01-13T03:44:15.568Z,6.90
2019-01-13T03:45:15.530Z,6.91
2019-01-13T03:46:15.513Z,6.83
2019-01-13T03:47:15.547Z,6.83
2019-01-13T03:48:15.500Z,6.94
2019-01-13T03:49:15.490Z,6.76
2019-01-13T03:50:15.487Z,6.81
2019-01-13T03:51:15.468Z,6.86
2019-01-13T03:52:15.459Z,6.90
2019-01-13T03:53:15.500Z,6.94
2019-01-13T03:54:15.515Z,6.81
2019-01-13T03:55:15.436Z,6.90
2019-01-13T03:56:15.428Z,6.90
2019-01-13T03:57:15.411Z,6.95
2019-01-13T03:58:15.412Z,6.97
2019-01-13T03:59:15.414Z,6.90
2019-01-13T04:00:15.385Z,6.87
2019-01-13T04:01:18.672Z,6.76
2019-01-13T04:02:15.377Z,6.91
2019-01-13T04:03:15.362Z,6.94
2019-01-13T04:04:15.335Z,6.97
2019-01-13T04:05:15.329Z,6.89
2019-01-13T04:06:15.306Z,6.95
2019-01-13T04:07:15.307Z,6.91
2019-01-13T04:08:15.333Z,6.94
2019-01-13T04:09:15.317Z,6.86
2019-01-13T04:10:15.266Z,6.91
2019-01-13T04:11:15.256Z,6.87
2019-01-13T04:12:15.252Z,6.94
2019-01-13T04:13:15.234Z,6.94
2019-01-13T04:14:15.267Z,6.98
2019-01-13T04:15:15.224Z,6.94
2019-01-13T04:16:15.205Z,6.95
2019-01-13T04:17:15.201Z,6.86
2019-01-13T04:18:15.185Z,6.90
2019-01-13T04:19:15.187Z,6.91
2019-01-13T04:20:15.219Z,6.95
2019-01-13T04:21:15.163Z,6.90
2019-01-13T04:22:15.143Z,6.86
2019-01-13T04:23:15.144Z,6.95
2019-01-13T04:24:15.209Z,6.90
2019-01-13T04:25:15.128Z,6.98
2019-01-13T04:26:15.100Z,6.94
2019-01-13T04:27:15.097Z,6.89
2019-01-13T04:28:15.076Z,6.91
2019-01-13T04:29:15.110Z,6.89
2019-01-13T04:30:15.077Z,6.90
2019-01-13T04:31:15.052Z,6.89
2019-01-13T04:32:15.054Z,6.91
2019-01-13T04:33:15.042Z,6.89
2019-01-13T04:34:15.040Z,6.91
2019-01-13T04:35:15.004Z,6.91
2019-01-13T04:36:14.997Z,6.94
2019-01-13T04:37:14.985Z,6.86
2019-01-13T04:38:14.966Z,6.86
2019-01-13T04:39:15.003Z,6.95
2019-01-13T04:40:14.955Z,6.95
2019-01-13T04:41:14.938Z,6.90
2019-01-13T04:42:14.932Z,6.95
2019-01-13T04:43:14.922Z,6.86
2019-01-13T04:44:14.959Z,6.91
2019-01-13T04:45:14.926Z,6.84
2019-01-13T04:46:14.894Z,6.86
2019-01-13T04:47:14.884Z,6.95
2019-01-13T04:48:14.894Z,6.89
2019-01-13T04:49:14.879Z,6.91
2019-01-13T04:50:14.872Z,6.94
2019-01-13T04:51:14.858Z,6.95
2019-01-13T04:52:14.831Z,6.94
2019-01-13T04:53:14.828Z,6.89
2019-01-13T04:54:14.820Z,6.84
2019-01-13T04:55:14.826Z,6.95
2019-01-13T04:56:14.788Z,6.90
2019-01-13T04:57:14.772Z,7.02
2019-01-13T04:58:14.802Z,6.90
2019-01-13T04:59:14.751Z,6.91
2019-01-13T05:00:14.769Z,6.90
2019-01-13T05:01:14.740Z,6.99
2019-01-13T05:02:14.751Z,6.95
2019-01-13T05:03:14.710Z,7.01
2019-01-13T05:04:14.706Z,6.95
2019-01-13T05:05:14.710Z,6.99
2019-01-13T05:06:14.676Z,7.02
2019-01-13T05:07:14.668Z,6.99
2019-01-13T05:08:14.672Z,7.04
2019-01-13T05:09:14.677Z,6.98
2019-01-13T05:10:14.658Z,7.01
2019-01-13T05:11:14.630Z,6.95
2019-01-13T05:12:14.625Z,6.99
2019-01-13T05:13:14.655Z,7.05
2019-01-13T05:14:14.601Z,7.01
2019-01-13T05:15:14.612Z,7.02
2019-01-13T05:16:14.595Z,7.08
2019-01-13T05:17:14.608Z,7.02
2019-01-13T05:18:14.556Z,7.01
2019-01-13T05:19:14.557Z,6.97
2019-01-13T05:20:14.535Z,7.02
2019-01-13T05:21:14.541Z,7.02
2019-01-13T05:22:14.513Z,6.98
2019-01-13T05:23:14.565Z,6.97
2019-01-13T05:24:14.497Z,7.05
2019-01-13T05:25:14.486Z,7.08
2019-01-13T05:26:14.518Z,6.97
2019-01-13T05:27:14.459Z,7.02
2019-01-13T05:28:14.452Z,7.07
2019-01-13T05:29:14.467Z,7.04
2019-01-13T05:30:14.444Z,6.99
2019-01-13T05:31:14.485Z,6.98
2019-01-13T05:32:14.413Z,7.01
2019-01-13T05:33:14.397Z,7.07
2019-01-13T05:34:14.389Z,7.04
2019-01-13T05:35:14.391Z,7.01
2019-01-13T05:36:14.397Z,6.97
2019-01-13T05:37:14.378Z,7.09
2019-01-13T05:38:14.358Z,7.08
2019-01-13T05:39:14.334Z,7.07
2019-01-13T05:40:14.324Z,6.98
2019-01-13T05:41:14.321Z,7.09
2019-01-13T05:42:14.338Z,7.05
2019-01-13T05:43:14.292Z,6.99
2019-01-13T05:44:14.291Z,7.12
2019-01-13T05:45:14.277Z,7.12
2019-01-13T05:46:14.272Z,7.12
2019-01-13T05:47:14.270Z,7.09
2019-01-13T05:48:14.249Z,7.12
2019-01-13T05:49:14.237Z,7.09
2019-01-13T05:50:14.271Z,7.13
2019-01-13T05:51:22.995Z,7.13
2019-01-13T05:52:14.342Z,7.15
2019-01-13T05:53:14.313Z,7.08
2019-01-13T05:54:14.303Z,7.17
2019-01-13T05:55:14.179Z,7.20
2019-01-13T05:56:14.160Z,7.16
2019-01-13T05:57:14.209Z,7.13
2019-01-13T05:58:14.164Z,7.15
2019-01-13T05:59:14.127Z,7.07
2019-01-13T06:00:14.128Z,7.16
2019-01-13T06:01:14.116Z,7.16
2019-01-13T06:02:14.093Z,7.09
2019-01-13T06:03:14.113Z,7.19
2019-01-13T06:04:14.069Z,7.07
2019-01-13T06:05:14.062Z,7.26
2019-01-13T06:06:14.063Z,7.22
2019-01-13T06:07:14.045Z,7.23
2019-01-13T06:08:14.066Z,7.12
2019-01-13T06:09:14.033Z,7.13
2019-01-13T06:10:14.009Z,7.22
2019-01-13T06:11:14.007Z,7.17
2019-01-13T06:12:14.012Z,7.15
2019-01-13T06:13:14.005Z,7.23
2019-01-13T06:14:13.968Z,7.24
2019-01-13T06:15:13.962Z,7.24
2019-01-13T06:16:13.995Z,7.19
2019-01-13T06:17:13.942Z,7.27
2019-01-13T06:18:13.953Z,7.23
2019-01-13T06:19:13.914Z,7.24
2019-01-13T06:20:13.907Z,7.23
2019-01-13T06:21:13.910Z,7.24
2019-01-13T06:22:13.892Z,7.22
2019-01-13T06:23:13.903Z,7.26
2019-01-13T06:24:13.883Z,7.26
2019-01-13T06:25:13.860Z,7.26
2019-01-13T06:26:22.890Z,7.24
2019-01-13T06:27:13.931Z,7.26
2019-01-13T06:28:14.007Z,7.27
2019-01-13T06:29:13.838Z,7.31
2019-01-13T06:30:13.833Z,7.22
2019-01-13T06:31:13.795Z,7.31
2019-01-13T06:32:13.794Z,7.32
2019-01-13T06:33:13.763Z,7.34
2019-01-13T06:34:21.467Z,7.27
2019-01-13T06:35:13.847Z,7.22
2019-01-13T06:36:21.483Z,7.32
2019-01-13T06:37:13.818Z,7.26
2019-01-13T06:38:14.957Z,7.20
2019-01-13T06:39:22.765Z,7.22
2019-01-13T06:40:13.816Z,7.23
2019-01-13T06:41:22.402Z,7.17
2019-01-13T06:42:13.778Z,7.32
2019-01-13T06:43:13.921Z,7.22
2019-01-13T06:44:13.733Z,7.34
2019-01-13T06:45:13.643Z,7.31
2019-01-13T06:46:22.332Z,7.27
2019-01-13T06:47:13.695Z,7.19
2019-01-13T06:48:22.421Z,7.23
2019-01-13T06:49:13.657Z,7.31
2019-01-13T06:50:13.841Z,7.31
2019-01-13T06:51:22.226Z,7.31
2019-01-13T06:52:13.671Z,7.32
2019-01-13T06:53:13.780Z,7.37
2019-01-13T06:54:13.586Z,7.38
2019-01-13T06:55:13.603Z,7.40
2019-01-13T06:56:23.568Z,7.37
2019-01-13T06:57:13.644Z,7.41
2019-01-13T06:58:13.698Z,7.31
2019-01-13T06:59:13.554Z,7.49
2019-01-13T07:00:13.523Z,7.32
2019-01-13T07:01:21.209Z,7.37
2019-01-13T07:02:13.561Z,7.37
2019-01-13T07:03:13.728Z,7.32
2019-01-13T07:04:22.429Z,7.42
2019-01-13T07:05:13.539Z,7.34
2019-01-13T07:06:13.560Z,7.41
2019-01-13T07:07:13.469Z,7.32
2019-01-13T07:08:13.400Z,7.32
2019-01-13T07:09:13.391Z,7.41
2019-01-13T07:10:22.353Z,7.37
2019-01-13T07:11:13.446Z,7.40
2019-01-13T07:12:13.533Z,7.44
2019-01-13T07:13:21.048Z,7.47
2019-01-13T07:14:13.413Z,7.40
2019-01-13T07:15:13.546Z,7.42
2019-01-13T07:16:13.357Z,7.37
2019-01-13T07:17:13.311Z,7.37
2019-01-13T07:18:13.294Z,7.44
2019-01-13T07:19:13.323Z,7.42
2019-01-13T07:20:13.273Z,7.41
2019-01-13T07:21:13.294Z,7.47
2019-01-13T07:22:13.270Z,7.42
2019-01-13T07:23:13.242Z,7.47
2019-01-13T07:24:20.920Z,7.42
2019-01-13T07:25:13.320Z,7.42
2019-01-13T07:26:13.467Z,7.52
2019-01-13T07:27:20.962Z,7.41
2019-01-13T07:28:13.288Z,7.47
2019-01-13T07:29:13.433Z,7.52
2019-01-13T07:30:13.219Z,7.53
2019-01-13T07:31:13.172Z,7.47
2019-01-13T07:32:20.863Z,7.47
2019-01-13T07:33:13.284Z,7.55
2019-01-13T07:34:20.844Z,7.53
2019-01-13T07:35:13.212Z,7.50
2019-01-13T07:36:13.295Z,7.45
2019-01-13T07:37:13.181Z,7.53
2019-01-13T07:38:13.086Z,7.52
2019-01-13T07:39:20.859Z,7.53
2019-01-13T07:40:13.135Z,7.53
2019-01-13T07:42:22.949Z,7.58
2019-01-13T07:43:22.905Z,7.63
2019-01-13T07:44:23.013Z,7.67
2019-01-13T07:45:22.796Z,7.60
2019-01-13T07:46:22.779Z,7.74
2019-01-13T07:47:22.778Z,7.62
2019-01-13T07:49:54.275Z,7.63
2019-01-13T07:50:57.290Z,7.60
2019-01-13T07:51:53.581Z,7.67
2019-01-13T07:52:53.604Z,7.67
2019-01-13T07:53:53.675Z,7.67
2019-01-13T07:54:54.037Z,7.60
2019-01-13T07:55:53.610Z,7.62
2019-01-13T07:56:53.555Z,7.71
2019-01-13T07:57:53.692Z,7.72
2019-01-13T07:58:53.496Z,7.69
2019-01-13T07:59:53.660Z,7.71
2019-01-13T08:00:53.492Z,7.67
2019-01-13T08:01:53.526Z,7.69
2019-01-13T08:02:53.589Z,7.74
2019-01-13T08:03:53.444Z,7.71
2019-01-13T08:04:53.622Z,7.71
2019-01-13T08:05:53.446Z,7.71
2019-01-13T08:06:53.521Z,7.69
2019-01-13T08:07:53.672Z,7.72
2019-01-13T08:08:53.489Z,7.77
2019-01-13T08:09:53.384Z,7.79
2019-01-13T08:10:53.382Z,7.74
2019-01-13T08:11:56.304Z,7.77
2019-01-13T08:12:54.471Z,7.79
2019-01-13T08:13:53.442Z,7.82
2019-01-13T08:14:53.307Z,7.67
2019-01-13T08:15:53.477Z,7.82
2019-01-13T08:16:53.362Z,7.79
2019-01-13T08:17:53.330Z,7.81
2019-01-13T08:18:53.329Z,7.77
2019-01-13T08:19:53.357Z,7.84
2019-01-13T08:20:53.386Z,7.87
2019-01-13T08:21:53.244Z,7.85
2019-01-13T08:22:53.281Z,7.87
2019-01-13T08:23:53.244Z,7.81
2019-01-13T08:24:53.298Z,7.89
2019-01-13T08:25:53.199Z,7.99
2019-01-13T08:26:53.192Z,7.87
2019-01-13T08:27:53.202Z,7.90
2019-01-13T08:28:54.309Z,7.92
2019-01-13T08:29:54.014Z,7.90
2019-01-13T08:30:53.180Z,7.90
2019-01-13T08:31:53.281Z,7.92
2019-01-13T08:32:53.267Z,7.85
2019-01-13T08:33:54.291Z,7.87
2019-01-13T08:34:53.477Z,7.92
2019-01-13T08:35:53.080Z,7.94
2019-01-13T08:36:53.365Z,7.89
2019-01-13T08:37:53.085Z,7.89
2019-01-13T08:38:53.132Z,7.87
2019-01-13T08:39:53.292Z,7.94
2019-01-13T08:40:53.034Z,7.99
2019-01-13T08:41:53.098Z,7.94
2019-01-13T08:42:53.072Z,8.03
2019-01-13T08:43:53.040Z,8.04
2019-01-13T08:44:53.104Z,7.93
2019-01-13T08:45:53.191Z,8.00
2019-01-13T08:46:53.041Z,8.02
2019-01-13T08:47:52.997Z,8.03
2019-01-13T08:48:52.947Z,8.00
2019-01-13T08:49:53.111Z,8.02
2019-01-13T08:50:53.007Z,8.00
2019-01-13T08:51:52.933Z,8.00
2019-01-13T08:52:52.948Z,8.00
2019-01-13T08:53:52.902Z,8.00
2019-01-13T08:54:52.984Z,8.04
2019-01-13T08:55:52.975Z,8.02
2019-01-13T08:56:52.868Z,8.03
2019-01-13T08:57:52.901Z,8.04
2019-01-13T08:58:52.886Z,8.04
2019-01-13T08:59:52.889Z,8.00
2019-01-13T09:00:52.874Z,8.12
2019-01-13T09:01:52.829Z,8.15
2019-01-13T09:02:52.799Z,8.12
2019-01-13T09:03:52.935Z,8.10
2019-01-13T09:04:52.986Z,8.15
2019-01-13T09:05:52.870Z,8.11
2019-01-13T09:06:52.910Z,8.15
2019-01-13T09:07:52.826Z,8.18
2019-01-13T09:08:53.647Z,8.08
2019-01-13T09:09:52.866Z,8.15
2019-01-13T09:10:52.986Z,8.14
2019-01-13T09:11:53.010Z,8.17
2019-01-13T09:12:56.852Z,8.17
2019-01-13T09:13:52.770Z,8.15
2019-01-13T09:14:52.769Z,8.15
2019-01-13T09:15:52.784Z,8.18
2019-01-13T09:16:53.066Z,8.20
2019-01-13T09:17:52.921Z,8.18
2019-01-13T09:18:53.114Z,8.17
2019-01-13T09:19:52.677Z,8.18
2019-01-13T09:20:52.888Z,8.20
2019-01-13T09:21:52.946Z,8.21
2019-01-13T09:22:52.743Z,8.22
2019-01-13T09:23:52.804Z,8.22
2019-01-13T09:24:52.737Z,8.18
2019-01-13T09:25:52.779Z,8.25
2019-01-13T09:26:52.910Z,8.26
2019-01-13T09:27:52.638Z,8.18
2019-01-13T09:28:52.551Z,8.21
2019-01-13T09:29:52.654Z,8.15
2019-01-13T09:30:52.635Z,8.25
2019-01-13T09:31:52.667Z,8.17
2019-01-13T09:32:52.530Z,8.21
2019-01-13T09:33:52.580Z,8.28
2019-01-13T09:34:52.503Z,8.26
2019-01-13T09:35:52.482Z,8.29
2019-01-13T09:36:52.506Z,8.26
2019-01-13T09:37:52.654Z,8.21
2019-01-13T09:38:52.606Z,8.21
2019-01-13T09:39:52.531Z,8.26
2019-01-13T09:40:52.461Z,8.22
2019-01-13T09:41:52.520Z,8.18
2019-01-13T09:42:52.405Z,8.18
2019-01-13T09:43:52.407Z,8.21
2019-01-13T09:44:52.407Z,8.25
2019-01-13T09:45:52.486Z,8.22
2019-01-13T09:46:52.427Z,8.25
2019-01-13T09:47:52.452Z,8.25
2019-01-13T09:48:52.372Z,8.21
2019-01-13T09:49:52.430Z,8.28
2019-01-13T09:50:52.393Z,8.11
2019-01-13T09:51:52.368Z,8.21
2019-01-13T09:52:52.347Z,8.25
2019-01-13T09:53:52.538Z,8.25
2019-01-13T09:54:52.450Z,8.22
2019-01-13T09:55:52.302Z,8.29
2019-01-13T09:56:52.335Z,8.28
2019-01-13T09:57:52.262Z,8.22
2019-01-13T09:58:52.380Z,8.32
2019-01-13T09:59:52.339Z,8.35
2019-01-13T10:00:52.293Z,8.22
2019-01-13T10:01:52.243Z,8.32
2019-01-13T10:02:52.174Z,8.35
2019-01-13T10:03:52.246Z,8.25
2019-01-13T10:04:52.208Z,8.32
2019-01-13T10:05:52.172Z,8.22
2019-01-13T10:06:52.208Z,8.30
2019-01-13T10:07:52.251Z,8.30
2019-01-13T10:08:52.203Z,8.32
2019-01-13T10:09:52.179Z,8.29
2019-01-13T10:10:52.144Z,8.26
2019-01-13T10:11:52.191Z,8.30
2019-01-13T10:12:52.266Z,8.32
2019-01-13T10:13:52.152Z,8.22
2019-01-13T10:14:52.094Z,8.29
2019-01-13T10:15:52.189Z,8.29
2019-01-13T10:16:52.063Z,8.20
2019-01-13T10:17:52.092Z,8.26
2019-01-13T10:18:52.044Z,8.22
2019-01-13T10:19:52.080Z,8.20
2019-01-13T10:20:52.000Z,8.26
2019-01-13T10:21:51.978Z,8.25
2019-01-13T10:22:52.064Z,8.28
2019-01-13T10:23:52.118Z,8.26
2019-01-13T10:24:52.126Z,8.30
2019-01-13T10:25:52.080Z,8.35
2019-01-13T10:26:51.944Z,8.28
2019-01-13T10:27:51.921Z,8.30
2019-01-13T10:28:51.894Z,8.30
2019-01-13T10:29:51.874Z,8.26
2019-01-13T10:30:51.983Z,8.32
2019-01-13T10:31:52.047Z,8.22
2019-01-13T10:32:54.609Z,8.30
2019-01-13T10:33:51.945Z,8.30
2019-01-13T10:34:51.995Z,8.29
2019-01-13T10:35:51.919Z,8.35
2019-01-13T10:36:51.860Z,8.26
2019-01-13T10:37:51.893Z,8.26
2019-01-13T10:38:51.835Z,8.30
2019-01-13T10:39:51.823Z,8.32
2019-01-13T10:40:51.894Z,8.26
2019-01-13T10:41:51.887Z,8.29
2019-01-13T10:42:51.905Z,8.32
2019-01-13T10:43:51.818Z,8.32
2019-01-13T10:44:51.754Z,8.33
2019-01-13T10:45:51.905Z,8.30
2019-01-13T10:46:51.820Z,8.30
2019-01-13T10:47:51.736Z,8.32
2019-01-13T10:48:51.703Z,8.36
2019-01-13T10:49:51.782Z,8.29
2019-01-13T10:50:51.712Z,8.36
2019-01-13T10:51:51.705Z,8.30
2019-01-13T10:52:51.749Z,8.29
2019-01-13T10:53:51.697Z,8.30
2019-01-13T10:54:51.694Z,8.42
2019-01-13T10:55:51.664Z,8.30
2019-01-13T10:56:51.720Z,8.35
2019-01-13T10:57:51.646Z,8.32
2019-01-13T10:58:51.634Z,8.35
2019-01-13T10:59:51.628Z,8.36
2019-01-13T11:00:51.720Z,8.33
2019-01-13T11:01:51.699Z,8.36
2019-01-13T11:02:51.559Z,8.36
2019-01-13T11:03:51.633Z,8.29
2019-01-13T11:04:51.562Z,8.35
2019-01-13T11:05:51.568Z,8.35
2019-01-13T11:06:51.539Z,8.37
2019-01-13T11:07:51.546Z,8.33
2019-01-13T11:08:51.517Z,8.35
2019-01-13T11:09:51.591Z,8.42
2019-01-13T11:10:51.577Z,8.39
2019-01-13T11:11:51.507Z,8.36
2019-01-13T11:12:51.481Z,8.37
2019-01-13T11:13:51.618Z,8.42
2019-01-13T11:14:51.420Z,8.39
2019-01-13T11:15:51.558Z,8.42
2019-01-13T11:16:51.430Z,8.45
2019-01-13T11:17:51.467Z,8.39
2019-01-13T11:18:51.434Z,8.35
2019-01-13T11:19:51.408Z,8.53
2019-01-13T11:20:51.466Z,8.42
2019-01-13T11:21:51.470Z,8.48
2019-01-13T11:22:51.425Z,8.40
2019-01-13T11:23:51.345Z,8.42
2019-01-13T11:24:51.406Z,8.50
2019-01-13T11:25:51.350Z,8.44
2019-01-13T11:26:51.395Z,8.42
2019-01-13T11:27:51.330Z,8.45
2019-01-13T11:28:51.290Z,8.40
2019-01-13T11:29:51.294Z,8.45
2019-01-13T11:30:51.258Z,8.45
2019-01-13T11:31:51.225Z,8.50
2019-01-13T11:32:51.468Z,8.48
2019-01-13T11:33:51.269Z,8.55
2019-01-13T11:34:51.216Z,8.50
2019-01-13T11:35:51.262Z,8.51
2019-01-13T11:36:51.323Z,8.42
2019-01-13T11:37:51.274Z,8.40
2019-01-13T11:38:51.271Z,8.44
2019-01-13T11:39:51.139Z,8.47
2019-01-13T11:40:51.120Z,8.48
2019-01-13T11:41:51.113Z,8.45
2019-01-13T11:42:51.108Z,8.45
2019-01-13T11:43:51.140Z,8.48
2019-01-13T11:44:51.082Z,8.48
2019-01-13T11:45:51.072Z,8.45
2019-01-13T11:46:51.063Z,8.47
2019-01-13T11:47:51.049Z,8.45
2019-01-13T11:48:51.109Z,8.44
2019-01-13T11:49:51.061Z,8.51
2019-01-13T11:50:51.043Z,8.50
2019-01-13T11:51:51.047Z,8.45
2019-01-13T11:52:50.994Z,8.47
2019-01-13T11:53:51.022Z,8.51
2019-01-13T11:54:51.000Z,8.53
2019-01-13T11:55:51.001Z,8.45
2019-01-13T11:56:50.962Z,8.51
2019-01-13T11:57:50.944Z,8.42
2019-01-13T11:58:51.018Z,8.53
2019-01-13T11:59:50.924Z,8.48
2019-01-13T12:00:50.907Z,8.50
2019-01-13T12:01:50.896Z,8.50
2019-01-13T12:02:50.892Z,8.53
2019-01-13T12:03:50.892Z,8.48
2019-01-13T12:04:50.890Z,8.50
2019-01-13T12:05:50.911Z,8.51
2019-01-13T12:06:50.842Z,8.45
2019-01-13T12:07:50.860Z,8.48
2019-01-13T12:08:50.865Z,8.48
2019-01-13T12:09:50.847Z,8.50
2019-01-13T12:10:50.812Z,8.48
2019-01-13T12:11:50.794Z,8.45
2019-01-13T12:12:50.968Z,8.53
2019-01-13T12:13:50.816Z,8.42
2019-01-13T12:14:50.862Z,8.45
2019-01-13T12:15:50.811Z,8.50
2019-01-13T12:16:50.859Z,8.48
2019-01-13T12:17:50.764Z,8.42
2019-01-13T12:18:50.724Z,8.51
2019-01-13T12:19:50.800Z,8.51
2019-01-13T12:20:50.698Z,8.55
2019-01-13T12:21:50.722Z,8.55
2019-01-13T12:22:50.693Z,8.55
2019-01-13T12:23:50.735Z,8.53
2019-01-13T12:24:50.791Z,8.58
2019-01-13T12:25:52.741Z,8.54
2019-01-13T12:26:50.799Z,8.55
2019-01-13T12:27:50.832Z,8.50
2019-01-13T12:28:50.671Z,8.50
2019-01-13T12:29:50.723Z,8.54
2019-01-13T12:30:50.618Z,8.55
2019-01-13T12:31:50.576Z,8.55
2019-01-13T12:32:50.568Z,8.60
2019-01-13T12:33:50.591Z,8.62
2019-01-13T12:34:50.673Z,8.60
2019-01-13T12:35:50.562Z,8.55
2019-01-13T12:36:50.527Z,8.57
2019-01-13T12:37:50.531Z,8.55
2019-01-13T12:38:50.508Z,8.57
2019-01-13T12:39:50.521Z,8.60
2019-01-13T12:40:50.520Z,8.58
2019-01-13T12:41:50.486Z,8.53
2019-01-13T12:42:50.473Z,8.57
2019-01-13T12:43:50.453Z,8.53
2019-01-13T12:44:50.458Z,8.57
2019-01-13T12:45:50.467Z,8.55
2019-01-13T12:46:50.428Z,8.55
2019-01-13T12:47:50.412Z,8.60
2019-01-13T12:48:50.416Z,8.53
2019-01-13T12:49:50.417Z,8.55
2019-01-13T12:50:50.416Z,8.51
2019-01-13T12:51:50.370Z,8.62
2019-01-13T12:52:50.367Z,8.53
2019-01-13T12:53:50.351Z,8.57
2019-01-13T12:54:51.614Z,8.57
2019-01-13T12:55:50.344Z,8.60
2019-01-13T12:56:50.338Z,8.60
2019-01-13T12:57:50.335Z,8.57
2019-01-13T12:58:50.296Z,8.57
2019-01-13T12:59:50.283Z,8.63
2019-01-13T13:00:50.363Z,8.58
2019-01-13T13:01:50.354Z,8.54
2019-01-13T13:02:50.268Z,8.55
2019-01-13T13:03:50.243Z,8.58
2019-01-13T13:04:50.233Z,8.58
2019-01-13T13:05:50.238Z,8.63
2019-01-13T13:06:50.215Z,8.55
2019-01-13T13:07:50.250Z,8.58
2019-01-13T13:08:50.210Z,8.60
2019-01-13T13:09:50.194Z,8.55
2019-01-13T13:10:50.178Z,8.55
2019-01-13T13:11:50.202Z,8.68
2019-01-13T13:12:50.209Z,8.58
2019-01-13T13:13:50.156Z,8.55
2019-01-13T13:14:50.186Z,8.54
2019-01-13T13:15:50.146Z,8.60
2019-01-13T13:16:50.108Z,8.62
2019-01-13T13:17:50.139Z,8.65
2019-01-13T13:18:50.087Z,8.65
2019-01-13T13:19:50.078Z,8.60
2019-01-13T13:20:50.805Z,8.62
2019-01-13T13:21:50.070Z,8.63
2019-01-13T13:22:50.081Z,8.66
2019-01-13T13:23:50.032Z,8.55
2019-01-13T13:24:50.057Z,8.71
2019-01-13T13:25:50.055Z,8.66
2019-01-13T13:26:50.090Z,8.68
2019-01-13T13:27:50.007Z,8.71